ADDS METAR Data INFO
IDs: Format: Raw Decoded Include TAF

Data at: 2012 UTC 18 Jul 2018

KPVE 181955Z AUTO VRB05KT 10SM CLR 31/20 A2996 RMK A01
KPVE 181935Z AUTO 05004KT 10SM CLR 31/20 A2997 RMK A01
KPVE 181915Z AUTO 04005KT 10SM CLR 31/20 A2998 RMK A01
KPVE 181855Z AUTO VRB06G11KT 10SM CLR 31/19 A2998 RMK A01
KPVE 181835Z AUTO VRB04KT 10SM CLR 31/19 A2999 RMK A01
KPVE 181815Z AUTO VRB04KT 10SM CLR 31/20 A3000 RMK A01
KPVE 181755Z AUTO VRB05KT 10SM CLR 31/20 A3000 RMK A01
KPVE 181735Z AUTO 01005KT 10SM CLR 30/20 A3000 RMK A01
KPVE 181715Z AUTO VRB03KT 10SM CLR 30/20 A3001 RMK A01
KPVE 181655Z AUTO VRB05KT 10SM CLR 30/20 A3001 RMK A01
KPVE 181635Z AUTO VRB05KT 10SM CLR 29/20 A3002 RMK A01
KPVE 181615Z AUTO VRB04KT 10SM CLR 29/21 A3002 RMK A01
KPVE 181555Z AUTO VRB05KT 10SM CLR 29/21 A3002 RMK A01
KPVE 181535Z AUTO VRB04KT 10SM CLR 29/20 A3002 RMK A01
KPVE 181515Z AUTO 04005KT 10SM CLR 29/21 A3002 RMK A01
KPVE 181455Z AUTO 06005KT 10SM CLR 28/20 A3003 RMK A01
KPVE 181435Z AUTO VRB04KT 10SM CLR 28/20 A3002 RMK A01
KPVE 181415Z AUTO 04005KT 10SM CLR 27/20 A3002 RMK A01
KPVE 181355Z AUTO 07004KT 10SM CLR 27/21 A3003 RMK A01
KPVE 181335Z AUTO 05005KT 10SM CLR 26/21 A3002 RMK A01
KPVE 181315Z AUTO 06004KT 10SM CLR 26/21 A3003 RMK A01
KPVE 181255Z AUTO 00000KT 10SM CLR 25/21 A3003 RMK A01
KPVE 181235Z AUTO 06003KT 10SM CLR 24/21 A3002 RMK A01
KPVE 181215Z AUTO 00000KT 10SM CLR 24/22 A3002 RMK A01
KPVE 181155Z AUTO 00000KT 10SM CLR 23/22 A3002 RMK A01
KPVE 181135Z AUTO 00000KT 10SM CLR 22/22 A3001 RMK A01
KPVE 181115Z AUTO 00000KT 10SM CLR 22/21 A3000 RMK A01
KPVE 181055Z AUTO 00000KT 10SM CLR 23/22 A3000 RMK A01
KPVE 181035Z AUTO 00000KT 10SM CLR 23/22 A2998 RMK A01
KPVE 181015Z AUTO 00000KT 5SM BR CLR 22/22 A2999 RMK A01
KPVE 180955Z AUTO 00000KT 10SM CLR 23/22 A2999 RMK A01
KPVE 180935Z AUTO 00000KT 10SM CLR 23/22 A2998 RMK A01
KPVE 180915Z AUTO 00000KT 10SM CLR 23/22 A2998 RMK A01
KPVE 180855Z AUTO 01006KT 23/22 A2998 RMK A01
KPVE 180835Z AUTO 01004KT 10SM SCT041 SCT046 23/23 A2999 RMK A01
KPVE 180815Z AUTO 01004KT 10SM FEW033 SCT042 24/23 A2999 RMK A01
KPVE 180755Z AUTO 00000KT 10SM FEW033 SCT045 24/23 A2999 RMK A01
KPVE 180735Z AUTO 00000KT 6SM BR SCT032 BKN045 24/23 A2999 RMK A01
KPVE 180715Z AUTO 00000KT 2 1/2SM BR BKN045 24/24 A2999 RMK A01 VIS 1 1/2V4
KPVE 180655Z AUTO 00000KT 5SM BR SCT044 24/24 A2999 RMK A01
KPVE 180635Z AUTO 00000KT 8SM SCT042 24/24 A2999 RMK A01
KPVE 180615Z AUTO 00000KT 3SM BR SCT032 OVC042 24/24 A2999 RMK A01
KPVE 180555Z AUTO 00000KT 2SM BR BKN032 OVC041 24/24 A2999 RMK A01
KPVE 180535Z AUTO 00000KT 1/2SM BR SCT030 OVC041 24/24 A3000 RMK A01
KPVE 180515Z AUTO 00000KT 4SM BR OVC041 24/24 A3001 RMK A01
KPVE 180455Z AUTO 00000KT 1SM BR OVC041 25/24 A3001 RMK A01 VIS 1/2V4
KPVE 180435Z AUTO 00000KT 4SM BR OVC041 25/24 A3001 RMK A01
KPVE 180415Z AUTO 00000KT 5SM BR BKN041 25/24 A3001 RMK A01
KPVE 180355Z AUTO 00000KT 6SM BR FEW041 25/25 A3001 RMK A01
KPVE 180335Z AUTO 00000KT 3SM BR FEW042 25/24 A3000 RMK A01
KPVE 180315Z AUTO 00000KT 8SM FEW043 25/24 A3000 RMK A01
KPVE 180255Z AUTO 00000KT 10SM CLR 26/25 A3000 RMK A01
KPVE 180235Z AUTO 00000KT 9SM CLR 25/25 A2999 RMK A01
KPVE 180215Z AUTO 00000KT 9SM CLR 25/25 A2998 RMK A01
KPVE 180155Z AUTO 00000KT 10SM CLR 26/25 A2998 RMK A01
KPVE 180135Z AUTO 00000KT 10SM CLR 26/25 A2998 RMK A01
KPVE 180115Z AUTO 00000KT 10SM CLR 27/25 A2999 RMK A01
KPVE 180055Z AUTO 00000KT 10SM CLR 28/25 A2999 RMK A01
KPVE 180035Z AUTO 00000KT 10SM FEW044 FEW050 FEW060 28/25 A2997 RMK A01
KPVE 180015Z AUTO 00000KT 10SM SCT045 SCT050 BKN060 28/25 A2996 RMK A01
KPVE 172355Z AUTO 19003KT 10SM SCT043 29/24 A2996 RMK A01
KPVE 172335Z AUTO 21005KT 10SM BKN041 30/24 A2995 RMK A01
KPVE 172315Z AUTO 00000KT 10SM FEW042 31/24 A2995 RMK A01
KPVE 172255Z AUTO 00000KT 10SM CLR 32/24 A2995 RMK A01
KPVE 172235Z AUTO 34005KT 10SM CLR 31/23 A2994 RMK A01
KPVE 172215Z AUTO VRB06KT 10SM CLR 31/24 A2994 RMK A01
KPVE 172155Z AUTO 03005KT 10SM CLR 31/23 A2994 RMK A01
KPVE 172135Z AUTO VRB05KT 10SM CLR 32/24 A2994 RMK A01
KPVE 172115Z AUTO 01005KT 10SM FEW049 FEW060 31/24 A2995 RMK A01
KPVE 172055Z AUTO VRB06KT 10SM CLR 32/24 A2995 RMK A01
KPVE 172035Z AUTO VRB06KT 10SM FEW060 SCT075 31/24 A2995 RMK A01
KPVE 172015Z AUTO 32003KT 10SM FEW038 SCT044 BKN075 31/24 A2996 RMK A01
KPVE 171955Z AUTO 03003KT 10SM BKN037 BKN045 BKN080 31/25 A2996 RMK A01
KPVE 171935Z AUTO 16003KT 10SM SCT035 SCT042 BKN080 32/25 A2997 RMK A01
KPVE 171915Z AUTO 00000KT 10SM SCT038 SCT046 BKN050 31/24 A2999 RMK A01
KPVE 171855Z AUTO 00000KT 10SM FEW036 SCT055 BKN065 31/24 A2999 RMK A01
KPVE 171835Z AUTO VRB04KT 10SM FEW029 FEW065 SCT075 32/24 A2999 RMK A01
KPVE 171815Z AUTO 00000KT 10SM FEW080 FEW090 FEW110 32/25 A2999 RMK A01
KPVE 171755Z AUTO 00000KT 10SM FEW024 FEW032 SCT040 31/24 A3000 RMK A01
KPVE 171735Z AUTO 22005KT 10SM SCT025 BKN033 BKN039 30/25 A3000 RMK A01
KPVE 171715Z AUTO 00000KT 10SM BKN027 BKN033 OVC038 30/25 A3001 RMK A01
KPVE 171655Z AUTO 21005KT 10SM BKN026 BKN030 BKN039 30/25 A3001 RMK A01
KPVE 171635Z AUTO VRB03KT 10SM FEW024 SCT030 SCT036 31/24 A3001 RMK A01
KPVE 171615Z AUTO 00000KT 10SM SCT023 SCT029 31/24 A3001 RMK A01
KPVE 171555Z AUTO 00000KT 10SM SCT023 BKN028 30/25 A3001 RMK A01
KPVE 171535Z AUTO 26003KT 10SM FEW015 SCT021 30/25 A3001 RMK A01
KPVE 171515Z AUTO 21004KT 10SM FEW015 BKN022 BKN028 29/25 A3001 RMK A01
KPVE 171455Z AUTO 00000KT 10SM SCT013 28/24 A3002 RMK A01
KPVE 171435Z AUTO 00000KT 10SM BKN013 BKN024 28/25 A3002 RMK A01
KPVE 171415Z AUTO 00000KT 10SM SCT007 BKN014 BKN021 28/25 A3002 RMK A01
KPVE 171355Z AUTO 00000KT 9SM BKN005 OVC014 27/25 A3003 RMK A01
KPVE 171335Z AUTO 00000KT 9SM OVC005 26/25 A3003 RMK A01
KPVE 171315Z AUTO 00000KT 6SM BR OVC004 26/25 A3002 RMK A01
KPVE 171255Z AUTO 18003KT 6SM BR OVC004 26/25 A3002 RMK A01
KPVE 171235Z AUTO 00000KT 4SM BR OVC003 25/25 A3002 RMK A01
KPVE 171215Z AUTO 00000KT 4SM BR OVC003 25/25 A3001 RMK A01
KPVE 171155Z AUTO 00000KT 4SM BR OVC004 25/25 A3001 RMK A01
KPVE 171135Z AUTO 00000KT 3SM BR OVC004 25/25 A3000 RMK A01
KPVE 171115Z AUTO 00000KT 3/4SM BR OVC003 24/24 A3000 RMK A01
KPVE 171055Z AUTO 00000KT 4SM BR OVC003 25/24 A2999 RMK A01
KPVE 171035Z AUTO 00000KT 5SM BR BKN003 BKN033 OVC110 25/24 A2998 RMK A01
KPVE 171015Z AUTO 00000KT 3SM BR FEW013 SCT048 BKN065 25/24 A2997 RMK A01
KPVE 170955Z AUTO 00000KT 6SM BR FEW055 BKN075 OVC110 25/24 A2997 RMK A01
KPVE 170935Z AUTO 00000KT 7SM FEW060 SCT080 OVC110 25/24 A2997 RMK A01
KPVE 170915Z AUTO 16004KT 6SM BR BKN090 OVC120 25/24 A2997 RMK A01
KPVE 170855Z AUTO 00000KT 4SM BR BKN070 OVC090 24/24 A2997 RMK A01
KPVE 170835Z AUTO 00000KT 4SM BR FEW075 SCT085 OVC100 24/24 A2998 RMK A01
KPVE 170815Z AUTO 00000KT 5SM BR FEW080 OVC100 24/24 A2997 RMK A01